Time;durP1;ratioP1;P1;durP2;ratioP2;P2;SDS_P1;SDS_P2;PMS_P1;PMS_P2;Temp;Humidity;BMP_temperature;BMP_pressure;BME280_temperature;BME280_humidity;BME280_pressure;Samples;Min_cycle;Max_cycle;Signal;HPM_P1;HPM_P2
2022/05/21 00:00:41;;;;;;;10.43;5.30;;;10.10;99.90;;;;;;7392575;19;20021;-63
2022/05/21 00:03:11;;;;;;;9.02;5.60;;;10.40;99.90;;;;;;7392404;19;20017;-64
2022/05/21 00:05:41;;;;;;;12.68;5.80;;;10.30;99.90;;;;;;7394825;19;20123;-64
2022/05/21 00:08:12;;;;;;;8.23;5.03;;;10.40;99.90;;;;;;7393240;19;20032;-64
2022/05/21 00:10:44;;;;;;;8.55;5.68;;;10.40;99.90;;;;;;7391992;19;20470;-63
2022/05/21 00:13:13;;;;;;;10.00;5.90;;;10.50;99.90;;;;;;7393132;19;20535;-63
2022/05/21 00:15:42;;;;;;;8.15;4.88;;;10.40;99.90;;;;;;7394973;19;20082;-64
2022/05/21 00:18:13;;;;;;;12.25;5.78;;;10.20;99.90;;;;;;7390099;19;20089;-64
2022/05/21 00:20:51;;;;;;;12.82;5.70;;;10.40;99.90;;;;;;7396211;19;20021;-64
2022/05/21 00:23:24;;;;;;;8.25;4.68;;;10.30;99.90;;;;;;7391872;19;20482;-63
2022/05/21 00:25:59;;;;;;;9.43;4.88;;;10.20;99.90;;;;;;7390352;19;20022;-64
2022/05/21 00:28:30;;;;;;;7.07;4.30;;;10.30;99.90;;;;;;7391612;19;20010;-64
2022/05/21 00:31:00;;;;;;;8.93;4.32;;;10.30;99.90;;;;;;7391495;19;20023;-64
2022/05/21 00:33:30;;;;;;;13.45;4.85;;;10.20;99.90;;;;;;7395928;19;20027;-64
2022/05/21 00:35:59;;;;;;;7.40;4.30;;;;;;;;;;7391766;19;20390;-64
2022/05/21 00:38:29;;;;;;;9.77;4.30;;;10.00;99.90;;;;;;7391657;19;20014;-63
2022/05/21 00:41:00;;;;;;;10.68;4.97;;;10.10;99.90;;;;;;7396579;19;20015;-63
2022/05/21 00:43:38;;;;;;;11.85;4.43;;;10.20;99.90;;;;;;7401320;19;20042;-63
2022/05/21 00:46:10;;;;;;;10.20;4.22;;;10.30;99.90;;;;;;7397180;19;20022;-64
2022/05/21 00:48:39;;;;;;;8.55;4.65;;;10.20;99.90;;;;;;7398556;19;20423;-63
2022/05/21 00:51:15;;;;;;;9.38;5.20;;;10.10;99.90;;;;;;7398265;19;20007;-64
2022/05/21 00:53:46;;;;;;;10.07;5.43;;;10.20;99.90;;;;;;7396856;19;20007;-64
2022/05/21 00:56:19;;;;;;;11.23;5.32;;;10.20;99.90;;;;;;7398064;19;20082;-64
2022/05/21 01:01:36;;;;;;;15.32;6.20;;;10.10;99.90;;;;;;7400838;19;20015;-63
2022/05/21 01:04:05;;;;;;;12.40;6.90;;;10.10;99.90;;;;;;7398093;19;20018;-64
2022/05/21 01:06:34;;;;;;;13.07;6.15;;;9.80;99.90;;;;;;7396873;19;20393;-64
2022/05/21 01:09:03;;;;;;;13.95;7.10;;;9.80;99.90;;;;;;7397913;19;20010;-63
2022/05/21 01:11:35;;;;;;;13.45;7.00;;;10.20;99.90;;;;;;7398209;19;20014;-64
2022/05/21 01:14:06;;;;;;;14.15;7.63;;;10.10;99.90;;;;;;7397696;19;20009;-63
2022/05/21 01:16:36;;;;;;;16.38;7.75;;;10.30;99.90;;;;;;7395835;19;20485;-64
2022/05/21 01:19:08;;;;;;;16.20;7.65;;;9.80;99.90;;;;;;7397651;19;20023;-64
2022/05/21 01:21:38;;;;;;;15.48;8.48;;;10.10;99.90;;;;;;7397778;19;20018;-64
2022/05/21 01:24:12;;;;;;;17.48;8.90;;;10.30;99.90;;;;;;7399305;19;20011;-64
2022/05/21 01:26:42;;;;;;;17.85;8.15;;;10.20;99.90;;;;;;7396667;19;20015;-63
2022/05/21 01:29:17;;;;;;;17.17;8.73;;;10.10;99.90;;;;;;7396805;19;20090;-64
2022/05/21 01:31:51;;;;;;;19.80;9.00;;;10.50;99.90;;;;;;7399551;19;20025;-64
2022/05/21 01:34:21;;;;;;;17.15;8.75;;;10.30;99.90;;;;;;7398596;19;20019;-64
2022/05/21 01:36:50;;;;;;;18.73;9.20;;;10.20;99.90;;;;;;7396771;19;20017;-63
2022/05/21 01:39:22;;;;;;;18.77;10.27;;;10.10;99.90;;;;;;7396798;19;20020;-64
2022/05/21 01:41:51;;;;;;;19.45;9.65;;;10.10;99.90;;;;;;7397749;19;20014;-63
2022/05/21 01:47:01;;;;;;;17.75;10.63;;;10.30;99.90;;;;;;7395130;19;20014;-64
2022/05/21 01:49:31;;;;;;;20.20;10.80;;;10.10;99.90;;;;;;7396671;19;20380;-63
2022/05/21 01:52:00;;;;;;;19.63;11.15;;;10.20;99.90;;;;;;7400066;19;20011;-64
2022/05/21 01:54:32;;;;;;;25.38;11.02;;;10.20;99.90;;;;;;7395977;19;20484;-64
2022/05/21 01:57:01;;;;;;;20.95;11.80;;;;;;;;;;7399277;19;20022;-64
2022/05/21 01:59:30;;;;;;;25.02;12.45;;;10.40;99.90;;;;;;7396414;19;20019;-63
2022/05/21 02:02:03;;;;;;;23.27;12.23;;;10.20;99.90;;;;;;7396901;19;20022;-64
2022/05/21 02:04:32;;;;;;;22.27;12.45;;;10.20;99.90;;;;;;7395975;19;20351;-63
2022/05/21 02:07:01;;;;;;;24.48;14.05;;;10.20;99.90;;;;;;7395383;19;20022;-63
2022/05/21 02:09:33;;;;;;;24.45;13.98;;;10.50;99.90;;;;;;7397895;19;20034;-64
2022/05/21 02:12:02;;;;;;;24.73;14.20;;;10.20;99.90;;;;;;7395750;19;20014;-64
2022/05/21 02:14:31;;;;;;;26.30;13.93;;;;;;;;;;7395571;19;20018;-64
2022/05/21 02:17:00;;;;;;;25.40;13.65;;;10.40;99.90;;;;;;7394817;19;20021;-63
2022/05/21 02:19:29;;;;;;;25.85;15.60;;;10.40;99.90;;;;;;7395597;19;20006;-64
2022/05/21 02:21:58;;;;;;;32.88;16.33;;;;;;;;;;7397346;19;20018;-63
2022/05/21 02:24:27;;;;;;;32.28;16.80;;;10.40;99.90;;;;;;7395311;19;20029;-64
2022/05/21 02:26:59;;;;;;;33.90;16.23;;;10.40;99.90;;;;;;7394942;19;20390;-63
2022/05/21 02:29:28;;;;;;;35.40;18.55;;;10.50;99.90;;;;;;7397423;19;20010;-64
2022/05/21 02:31:57;;;;;;;32.70;18.20;;;10.80;99.90;;;;;;7395332;19;20492;-63
2022/05/21 02:34:25;;;;;;;29.67;14.98;;;10.40;99.90;;;;;;7395157;19;20114;-63
2022/05/21 02:39:36;;;;;;;34.10;19.38;;;10.50;99.90;;;;;;7394872;19;20014;-64
2022/05/21 02:42:43;;;;;;;33.35;19.88;;;10.50;99.90;;;;;;7398193;19;20014;-64
2022/05/21 02:44:58;;;;;;;36.95;19.35;;;10.50;99.90;;;;;;7395053;19;20106;-64
2022/05/21 02:47:27;;;;;;;35.17;20.17;;;10.80;99.90;;;;;;7393669;19;20032;-64
2022/05/21 02:49:56;;;;;;;35.38;19.25;;;10.50;99.90;;;;;;7394546;19;20050;-64
2022/05/21 02:52:26;;;;;;;38.60;21.33;;;10.90;99.90;;;;;;7394412;19;20020;-64
2022/05/21 02:54:56;;;;;;;38.03;19.80;;;;;;;;;;7393775;19;20494;-64
2022/05/21 02:57:28;;;;;;;35.20;19.73;;;10.60;99.90;;;;;;7394548;19;20014;-64
2022/05/21 02:59:57;;;;;;;36.15;19.60;;;10.60;99.90;;;;;;7396312;19;20027;-64
2022/05/21 03:02:27;;;;;;;37.88;20.02;;;10.80;99.90;;;;;;7395450;19;20509;-64
2022/05/21 03:04:56;;;;;;;35.90;19.95;;;10.70;99.90;;;;;;7396128;19;20358;-64
2022/05/21 03:07:25;;;;;;;37.47;20.55;;;10.70;99.90;;;;;;7393304;19;20085;-64
2022/05/21 03:12:39;;;;;;;34.63;19.60;;;10.70;99.90;;;;;;7396739;19;20408;-64
2022/05/21 03:15:09;;;;;;;34.85;20.35;;;10.70;99.90;;;;;;7393958;19;20081;-64
2022/05/21 03:17:38;;;;;;;33.80;20.48;;;10.70;99.90;;;;;;7392785;19;20018;-64
2022/05/21 03:20:09;;;;;;;37.58;20.35;;;11.40;99.90;;;;;;7394534;19;20350;-64
2022/05/21 03:22:38;;;;;;;38.33;20.45;;;10.80;99.90;;;;;;7393866;19;20013;-64
2022/05/21 03:25:08;;;;;;;32.78;19.30;;;10.80;99.90;;;;;;7393888;19;20015;-64
2022/05/21 03:27:41;;;;;;;30.95;18.73;;;10.60;99.90;;;;;;7393065;19;20036;-64
2022/05/21 03:30:13;;;;;;;31.30;19.77;;;10.80;99.90;;;;;;7393776;19;20020;-64
2022/05/21 03:32:42;;;;;;;32.97;19.20;;;11.00;99.90;;;;;;7394716;19;20076;-63
2022/05/21 03:35:13;;;;;;;43.22;19.55;;;10.80;99.90;;;;;;7393132;19;20513;-64
2022/05/21 03:37:42;;;;;;;28.00;17.05;;;10.80;99.90;;;;;;7393169;19;20018;-64
2022/05/21 03:40:14;;;;;;;29.35;17.58;;;10.80;99.90;;;;;;7396402;19;20070;-64
2022/05/21 03:42:46;;;;;;;33.45;17.77;;;10.80;99.90;;;;;;7393026;19;20018;-64
2022/05/21 03:45:16;;;;;;;34.25;17.90;;;10.60;99.90;;;;;;7393309;19;20017;-64
2022/05/21 03:47:46;;;;;;;29.42;16.10;;;10.90;99.90;;;;;;7391796;19;20370;-64
2022/05/21 03:50:16;;;;;;;31.13;18.48;;;10.60;99.90;;;;;;7395071;19;20409;-64
2022/05/21 03:52:46;;;;;;;34.47;17.05;;;10.90;99.90;;;;;;7395840;19;20018;-64
2022/05/21 03:55:15;;;;;;;33.58;17.98;;;10.90;99.90;;;;;;7391816;19;20017;-64
2022/05/21 03:57:47;;;;;;;34.50;17.20;;;10.70;99.90;;;;;;7393203;19;20456;-64
2022/05/21 04:00:20;;;;;;;29.92;16.80;;;11.00;99.90;;;;;;7394281;19;20034;-64
2022/05/21 04:02:48;;;;;;;28.85;16.05;;;11.00;99.90;;;;;;7392274;19;20031;-64
2022/05/21 04:05:18;;;;;;;30.52;16.88;;;11.10;99.90;;;;;;7392255;19;20018;-63
2022/05/21 04:07:47;;;;;;;29.65;16.33;;;10.80;99.90;;;;;;7393411;19;20091;-63
2022/05/21 04:10:18;;;;;;;34.17;17.45;;;11.10;99.90;;;;;;7396707;19;20010;-64
2022/05/21 04:12:49;;;;;;;30.05;15.65;;;11.00;99.90;;;;;;7392568;19;20493;-64
2022/05/21 04:15:19;;;;;;;29.90;16.15;;;11.10;99.90;;;;;;7396564;19;20044;-64
2022/05/21 04:17:48;;;;;;;31.98;15.57;;;11.10;99.90;;;;;;7397950;19;20046;-64
2022/05/21 04:20:20;;;;;;;25.85;15.25;;;11.10;99.90;;;;;;7400339;19;20018;-64
2022/05/21 04:22:48;;;;;;;28.58;15.10;;;11.30;99.90;;;;;;7399230;19;20010;-63
2022/05/21 04:25:17;;;;;;;31.67;15.15;;;11.10;99.90;;;;;;7403862;19;20018;-64
2022/05/21 04:27:49;;;;;;;27.70;14.55;;;11.10;99.90;;;;;;7399568;19;20025;-64
2022/05/21 04:30:22;;;;;;;27.33;13.88;;;11.20;99.90;;;;;;7402640;19;20029;-64
2022/05/21 04:32:51;;;;;;;28.98;14.05;;;11.20;99.90;;;;;;7399180;19;20460;-63
2022/05/21 04:35:21;;;;;;;25.90;14.50;;;11.10;99.90;;;;;;7400273;19;20090;-64
2022/05/21 04:37:50;;;;;;;27.88;13.52;;;11.20;99.90;;;;;;7400374;19;20018;-64
2022/05/21 04:40:23;;;;;;;24.85;12.70;;;11.20;99.90;;;;;;7399947;19;20073;-63
2022/05/21 04:42:55;;;;;;;26.85;10.90;;;11.20;99.90;;;;;;7398792;19;20023;-64
2022/05/21 04:45:24;;;;;;;24.83;11.88;;;11.30;99.90;;;;;;7398949;19;20497;-64
2022/05/21 04:47:53;;;;;;;24.42;11.15;;;11.40;99.90;;;;;;7397288;19;20026;-64
2022/05/21 04:50:22;;;;;;;24.23;10.38;;;11.40;99.90;;;;;;7401999;19;20018;-63
2022/05/21 04:52:52;;;;;;;18.13;9.50;;;11.70;99.90;;;;;;7398753;19;20018;-64
2022/05/21 04:55:21;;;;;;;23.00;9.13;;;11.40;99.90;;;;;;7397640;19;20093;-64
2022/05/21 04:57:50;;;;;;;16.05;7.75;;;11.50;99.90;;;;;;7399184;19;20085;-63
2022/05/21 05:00:22;;;;;;;20.85;7.70;;;11.60;99.90;;;;;;7398059;19;20023;-64
2022/05/21 05:02:51;;;;;;;16.75;7.07;;;11.60;99.90;;;;;;7397514;19;20014;-63
2022/05/21 05:05:20;;;;;;;21.77;7.10;;;11.50;99.90;;;;;;7398076;19;20011;-63
2022/05/21 05:07:50;;;;;;;14.43;5.90;;;11.80;99.90;;;;;;7396836;19;20086;-63
2022/05/21 05:10:19;;;;;;;13.75;5.50;;;11.60;99.90;;;;;;7397853;19;20517;-63
2022/05/21 05:12:48;;;;;;;18.85;5.10;;;11.70;99.90;;;;;;7398729;19;20014;-63
2022/05/21 05:15:17;;;;;;;14.00;4.35;;;11.70;99.90;;;;;;7400230;19;20338;-63
2022/05/21 05:17:52;;;;;;;10.02;3.92;;;11.70;99.90;;;;;;7396241;19;20010;-63
2022/05/21 05:20:21;;;;;;;14.55;4.63;;;11.80;99.90;;;;;;7399414;19;20021;-63
2022/05/21 05:22:50;;;;;;;13.57;4.15;;;11.80;99.90;;;;;;7397970;19;20018;-63
2022/05/21 05:25:19;;;;;;;14.48;3.53;;;11.80;99.90;;;;;;7396220;19;20011;-63
2022/05/21 05:27:49;;;;;;;12.23;3.83;;;12.10;99.90;;;;;;7398556;19;20014;-63
2022/05/21 05:30:18;;;;;;;14.20;4.30;;;11.80;99.90;;;;;;7399450;19;20409;-63
2022/05/21 05:32:47;;;;;;;12.40;4.28;;;;;;;;;;7400600;19;20051;-63
2022/05/21 05:35:20;;;;;;;10.32;3.88;;;11.90;99.90;;;;;;7397835;19;20021;-63
2022/05/21 05:37:49;;;;;;;13.93;3.83;;;12.10;99.90;;;;;;7400994;19;20011;-63
2022/05/21 05:40:22;;;;;;;8.55;3.20;;;12.00;99.90;;;;;;7397292;19;20039;-63
2022/05/21 05:42:51;;;;;;;16.95;4.32;;;11.80;99.90;;;;;;7397045;19;20011;-63
2022/05/21 05:45:20;;;;;;;13.70;3.88;;;12.00;99.90;;;;;;7396997;19;20014;-64
2022/05/21 05:47:49;;;;;;;9.35;3.50;;;12.00;99.90;;;;;;7394228;19;20363;-64
2022/05/21 05:50:21;;;;;;;14.65;3.78;;;12.00;99.90;;;;;;7399746;19;20022;-64
2022/05/21 05:52:50;;;;;;;11.00;3.30;;;12.10;99.90;;;;;;7396666;19;20010;-64
2022/05/21 05:55:20;;;;;;;13.02;4.03;;;12.00;99.90;;;;;;7395420;19;20372;-64
2022/05/21 05:57:53;;;;;;;10.32;3.60;;;12.10;99.90;;;;;;7399505;19;20014;-64
2022/05/21 06:00:20;;;;;;;8.57;3.28;;;12.10;99.90;;;;;;7396301;19;20019;-64
2022/05/21 06:03:01;;;;;;;11.13;3.78;;;12.10;99.90;;;;;;7395875;19;20508;-64
2022/05/21 06:05:35;;;;;;;11.30;3.78;;;12.20;99.90;;;;;;7396813;19;20037;-64
2022/05/21 06:08:07;;;;;;;10.32;3.58;;;12.30;99.90;;;;;;7398094;19;20022;-64
2022/05/21 06:10:38;;;;;;;7.75;3.20;;;12.20;99.90;;;;;;7395803;19;20023;-64
2022/05/21 06:13:08;;;;;;;11.75;3.53;;;12.10;99.90;;;;;;7395717;19;20015;-64
2022/05/21 06:15:37;;;;;;;12.13;3.50;;;12.20;99.90;;;;;;7395948;19;20387;-63
2022/05/21 06:18:10;;;;;;;10.63;3.00;;;12.10;99.90;;;;;;7393086;19;20035;-63
2022/05/21 06:20:43;;;;;;;12.80;3.90;;;12.30;99.90;;;;;;7395474;19;20007;-64
2022/05/21 06:23:13;;;;;;;10.63;3.72;;;12.30;99.90;;;;;;7397999;19;20358;-64
2022/05/21 06:25:42;;;;;;;11.93;3.55;;;;;;;;;;7395181;19;20006;-64
2022/05/21 06:28:11;;;;;;;10.60;3.13;;;12.30;99.90;;;;;;7394080;19;20019;-64
2022/05/21 06:30:43;;;;;;;10.63;3.40;;;12.40;99.90;;;;;;7399999;19;20018;-64
2022/05/21 06:33:17;;;;;;;12.65;3.20;;;12.40;99.90;;;;;;7395364;19;20011;-62
2022/05/21 06:35:49;;;;;;;11.15;3.03;;;12.50;99.90;;;;;;7397557;19;20018;-62
2022/05/21 06:38:19;;;;;;;10.30;3.28;;;12.50;99.90;;;;;;7393006;19;20044;-62
2022/05/21 06:40:49;;;;;;;11.90;3.08;;;12.60;99.90;;;;;;7398363;19;20508;-62
2022/05/21 06:43:20;;;;;;;10.60;3.28;;;12.50;99.90;;;;;;7394822;19;20338;-62
2022/05/21 06:45:49;;;;;;;9.80;2.80;;;12.60;99.90;;;;;;7394561;19;20429;-63
2022/05/21 06:48:18;;;;;;;12.95;3.60;;;12.70;99.90;;;;;;7394255;19;20020;-63
2022/05/21 06:50:50;;;;;;;7.78;2.83;;;12.70;99.90;;;;;;7397676;19;20020;-63
2022/05/21 06:53:18;;;;;;;12.98;3.80;;;12.70;99.90;;;;;;7395036;19;20011;-63
2022/05/21 06:55:48;;;;;;;15.35;4.03;;;12.80;99.90;;;;;;7393249;19;20018;-63
2022/05/21 06:58:17;;;;;;;16.88;3.30;;;12.60;99.90;;;;;;7398119;19;20018;-63
2022/05/21 07:00:46;;;;;;;9.88;3.00;;;12.70;99.90;;;;;;7394992;19;20473;-63
2022/05/21 07:03:15;;;;;;;10.15;3.22;;;;;;;;;;7393911;19;20038;-63
2022/05/21 07:08:29;;;;;;;9.07;3.10;;;12.70;99.90;;;;;;7395082;19;20053;-63
2022/05/21 07:10:59;;;;;;;8.68;3.00;;;12.80;99.90;;;;;;7397334;19;20025;-63
2022/05/21 07:13:30;;;;;;;11.30;3.13;;;12.90;99.90;;;;;;7393234;19;20019;-63
2022/05/21 07:16:00;;;;;;;9.40;3.30;;;13.00;99.90;;;;;;7393645;19;20495;-63
2022/05/21 07:18:29;;;;;;;12.48;3.63;;;12.80;99.90;;;;;;7395276;19;20545;-63
2022/05/21 07:20:58;;;;;;;12.20;3.20;;;13.00;99.90;;;;;;7395545;19;20077;-63
2022/05/21 07:23:30;;;;;;;7.05;2.97;;;13.00;99.90;;;;;;7394172;19;20494;-63
2022/05/21 07:25:59;;;;;;;10.73;2.83;;;12.90;99.90;;;;;;7393648;19;20339;-63
2022/05/21 07:28:28;;;;;;;11.50;3.13;;;13.10;99.90;;;;;;7392422;19;20015;-63
2022/05/21 07:30:57;;;;;;;10.57;2.90;;;12.90;99.90;;;;;;7393284;19;20019;-63
2022/05/21 07:33:26;;;;;;;12.10;3.15;;;13.00;99.90;;;;;;7395265;19;20021;-63
2022/05/21 07:35:55;;;;;;;12.77;3.42;;;;;;;;;;7394378;19;20050;-62
2022/05/21 07:38:24;;;;;;;13.80;3.17;;;12.80;99.90;;;;;;7396940;19;20018;-63
2022/05/21 07:40:56;;;;;;;9.85;2.70;;;13.00;99.90;;;;;;7395279;19;20018;-63
2022/05/21 07:43:27;;;;;;;11.57;2.83;;;13.10;99.90;;;;;;7392834;19;20481;-62
2022/05/21 07:45:57;;;;;;;12.65;2.97;;;13.20;99.90;;;;;;7392761;19;20070;-63
2022/05/21 07:48:27;;;;;;;13.50;3.55;;;13.20;99.90;;;;;;7395728;19;20074;-63
2022/05/21 07:50:58;;;;;;;7.82;3.20;;;13.20;99.90;;;;;;7400046;19;20014;-63
2022/05/21 07:53:29;;;;;;;12.45;2.75;;;13.30;99.90;;;;;;7400235;19;20081;-63
2022/05/21 07:56:01;;;;;;;6.85;2.70;;;13.20;99.90;;;;;;7401130;19;20018;-63
2022/05/21 07:58:33;;;;;;;8.02;3.47;;;13.10;99.90;;;;;;7402303;19;20497;-63
2022/05/21 08:01:02;;;;;;;8.43;3.03;;;13.10;99.90;;;;;;7401349;19;20041;-63
2022/05/21 08:03:31;;;;;;;11.73;3.05;;;13.10;99.90;;;;;;7398321;19;20366;-63
2022/05/21 08:06:00;;;;;;;10.68;3.00;;;13.20;99.90;;;;;;7401896;19;20022;-63
2022/05/21 08:08:29;;;;;;;8.23;3.33;;;13.30;99.90;;;;;;7399200;19;20030;-63
2022/05/21 08:11:01;;;;;;;7.28;3.17;;;13.40;99.90;;;;;;7399792;19;20007;-62
2022/05/21 08:13:30;;;;;;;12.60;2.80;;;13.60;99.90;;;;;;7398227;19;20010;-63
2022/05/21 08:15:59;;;;;;;9.48;3.05;;;13.60;99.90;;;;;;7399334;19;20481;-63
2022/05/21 08:18:29;;;;;;;10.82;2.92;;;13.60;99.90;;;;;;7400531;19;20018;-63
2022/05/21 08:20:58;;;;;;;8.80;3.88;;;13.40;99.90;;;;;;7399366;19;20023;-63
2022/05/21 08:28:53;;;;;;;6.50;2.35;;;13.50;99.90;;;;;;7398028;19;20024;-63
2022/05/21 08:31:22;;;;;;;12.23;3.47;;;13.60;99.90;;;;;;7398862;19;20334;-63
2022/05/21 08:33:51;;;;;;;13.90;3.60;;;13.60;99.90;;;;;;7399871;19;20347;-63
2022/05/21 08:36:19;;;;;;;9.25;2.50;;;13.70;99.90;;;;;;7399035;19;20006;-64
2022/05/21 08:38:49;;;;;;;8.70;2.70;;;13.80;99.90;;;;;;7400552;19;20007;-63
2022/05/21 08:41:25;;;;;;;11.25;3.08;;;13.90;99.90;;;;;;7399196;19;20014;-63
2022/05/21 08:44:03;;;;;;;10.10;2.30;;;13.80;99.90;;;;;;7399053;19;20052;-63
2022/05/21 08:46:44;;;;;;;12.10;2.30;;;13.80;99.90;;;;;;7399029;19;20085;-63
2022/05/21 08:49:26;;;;;;;17.23;2.92;;;13.70;99.90;;;;;;7397539;19;20023;-63
2022/05/21 08:52:01;;;;;;;8.57;2.65;;;14.00;99.90;;;;;;7398983;19;20029;-63
2022/05/21 08:54:36;;;;;;;7.80;2.55;;;13.80;99.90;;;;;;7398089;19;20031;-63
2022/05/21 08:57:14;;;;;;;8.77;2.30;;;13.90;99.90;;;;;;7398009;19;20074;-63
2022/05/21 08:59:49;;;;;;;6.65;2.40;;;13.80;99.90;;;;;;7397655;19;20555;-63
2022/05/21 09:02:20;;;;;;;6.70;2.00;;;13.70;99.90;;;;;;7399909;19;20035;-63
2022/05/21 09:04:49;;;;;;;9.35;2.58;;;13.90;99.90;;;;;;7397910;19;20010;-63
2022/05/21 09:07:22;;;;;;;10.88;2.80;;;14.00;99.90;;;;;;7398488;19;20022;-64
2022/05/21 09:10:04;;;;;;;8.80;2.58;;;14.10;99.90;;;;;;7396810;19;20046;-64
2022/05/21 09:12:44;;;;;;;6.88;2.38;;;14.10;99.90;;;;;;7399362;19;20015;-64
2022/05/21 09:16:54;;;;;;;6.40;2.38;;;14.30;99.90;;;;;;7397858;19;20350;-64
2022/05/21 09:18:11;;;;;;;11.57;3.05;;;14.40;99.90;;;;;;7398048;19;20039;-64
2022/05/21 09:20:51;;;;;;;6.65;2.30;;;14.30;99.90;;;;;;7397461;19;20059;-64
2022/05/21 09:23:20;;;;;;;7.80;2.92;;;14.50;99.90;;;;;;7397836;19;20045;-64
2022/05/21 09:26:05;;;;;;;8.80;2.92;;;14.40;99.90;;;;;;7397788;19;20080;-64
2022/05/21 09:28:39;;;;;;;8.07;2.60;;;14.30;99.90;;;;;;7396484;19;20014;-64
2022/05/21 09:31:09;;;;;;;10.52;2.63;;;14.40;99.90;;;;;;7401342;19;20031;-64
2022/05/21 09:33:41;;;;;;;8.82;2.38;;;14.30;99.90;;;;;;7402399;19;20017;-65
2022/05/21 09:36:11;;;;;;;9.02;2.30;;;14.40;99.90;;;;;;7397902;19;20074;-64
2022/05/21 09:38:53;;;;;;;11.82;3.00;;;14.20;99.90;;;;;;7399170;19;20537;-64
2022/05/21 09:41:26;;;;;;;10.38;3.03;;;14.30;99.90;;;;;;7396889;19;20485;-64
2022/05/21 09:46:43;;;;;;;6.55;2.25;;;14.60;99.90;;;;;;7398278;19;20077;-64
2022/05/21 09:49:28;;;;;;;11.18;3.10;;;14.60;99.90;;;;;;7395527;19;20025;-64
2022/05/21 09:52:00;;;;;;;11.02;2.67;;;14.50;99.90;;;;;;7396890;19;20496;-64
2022/05/21 09:54:31;;;;;;;9.65;3.20;;;14.30;99.90;;;;;;7396378;19;20041;-63
2022/05/21 09:57:00;;;;;;;10.48;2.72;;;14.20;99.90;;;;;;7394312;19;20047;-63
2022/05/21 09:59:35;;;;;;;10.88;3.00;;;14.30;99.90;;;;;;7396692;19;20027;-63
2022/05/21 10:02:19;;;;;;;11.02;3.20;;;14.50;99.90;;;;;;7396166;19;20018;-63
2022/05/21 10:04:53;;;;;;;7.03;2.85;;;14.40;99.90;;;;;;7398423;19;20025;-63
2022/05/21 10:13:03;;;;;;;11.60;2.85;;;15.20;99.90;;;;;;7396185;19;20010;-63
2022/05/21 10:15:39;;;;;;;9.98;2.78;;;14.80;99.90;;;;;;7395709;19;20010;-64
2022/05/21 10:18:15;;;;;;;10.80;3.03;;;14.60;99.90;;;;;;7393772;19;20022;-63
2022/05/21 10:20:49;;;;;;;9.73;2.78;;;15.00;99.90;;;;;;7398945;19;20035;-64
2022/05/21 10:23:30;;;;;;;8.95;2.50;;;14.60;99.90;;;;;;7395370;19;20010;-64
2022/05/21 10:26:11;;;;;;;8.20;2.20;;;14.90;99.90;;;;;;7394537;19;20014;-65
2022/05/21 10:28:52;;;;;;;6.55;2.25;;;14.20;99.90;;;;;;7397708;19;20074;-64
2022/05/21 10:31:36;;;;;;;9.27;2.50;;;14.70;99.90;;;;;;7395567;19;20014;-64
2022/05/21 10:34:19;;;;;;;8.95;2.20;;;14.80;99.90;;;;;;7398408;19;20347;-64
2022/05/21 10:37:02;;;;;;;10.77;2.47;;;14.90;99.90;;;;;;7395198;19;20015;-64
2022/05/21 10:39:40;;;;;;;8.55;2.22;;;14.90;99.90;;;;;;7394861;19;20010;-64
2022/05/21 10:42:31;;;;;;;10.10;2.60;;;14.90;99.90;;;;;;7396032;19;20019;-63
2022/05/21 10:45:15;;;;;;;11.35;2.53;;;14.80;99.90;;;;;;7394717;19;20013;-64
2022/05/21 10:48:09;;;;;;;9.82;2.35;;;15.10;99.90;;;;;;7394855;19;20014;-64
2022/05/21 10:50:46;;;;;;;9.90;2.45;;;15.60;99.90;;;;;;7390108;19;20018;-64
2022/05/21 10:53:32;;;;;;;5.40;2.00;;;15.30;99.90;;;;;;7394519;19;20014;-64
2022/05/21 10:56:10;;;;;;;9.68;2.33;;;15.50;99.90;;;;;;7395885;19;20015;-64
2022/05/21 10:58:52;;;;;;;8.95;2.20;;;15.70;99.90;;;;;;7393584;19;20014;-64
2022/05/21 11:01:31;;;;;;;7.20;2.08;;;15.70;99.90;;;;;;7394341;19;20372;-64
2022/05/21 11:04:22;;;;;;;8.80;2.38;;;15.50;99.90;;;;;;7395647;19;20022;-64
2022/05/21 11:07:14;;;;;;;10.73;2.45;;;15.50;99.90;;;;;;7394076;19;20017;-64
2022/05/21 11:09:49;;;;;;;9.82;2.20;;;15.30;99.90;;;;;;7393319;19;20027;-64
2022/05/21 11:12:23;;;;;;;7.40;2.10;;;15.20;99.90;;;;;;7396234;19;20409;-64
2022/05/21 11:14:58;;;;;;;6.70;2.03;;;14.90;99.90;;;;;;7393261;19;20030;-64
2022/05/21 11:17:35;;;;;;;7.28;2.50;;;15.10;99.90;;;;;;7391977;19;20014;-64
2022/05/21 11:20:15;;;;;;;7.80;1.90;;;14.90;99.90;;;;;;7395711;19;20356;-64
2022/05/21 11:22:50;;;;;;;5.53;2.20;;;14.50;99.90;;;;;;7396106;19;20021;-64
2022/05/21 11:25:24;;;;;;;8.30;2.33;;;14.70;99.90;;;;;;7392358;19;20018;-64
2022/05/21 11:28:02;;;;;;;7.43;2.10;;;14.70;99.90;;;;;;7394271;19;20010;-64
2022/05/21 11:30:31;;;;;;;8.63;2.05;;;14.70;99.90;;;;;;7391599;19;20482;-64
2022/05/21 11:38:36;;;;;;;10.70;2.20;;;14.90;99.90;;;;;;7393817;19;20014;-64
2022/05/21 11:44:55;;;;;;;7.80;2.10;;;14.90;99.90;;;;;;7392726;19;20027;-64
2022/05/21 11:46:56;;;;;;;7.82;2.20;;;15.10;99.90;;;;;;7394667;19;20014;-64
2022/05/21 11:49:37;;;;;;;10.43;2.30;;;15.50;99.90;;;;;;7392111;19;20014;-64
2022/05/21 11:52:35;;;;;;;7.32;2.05;;;15.40;99.90;;;;;;7392423;19;20014;-63
2022/05/21 11:55:17;;;;;;;7.57;1.75;;;15.50;99.90;;;;;;7391555;19;20014;-64
2022/05/21 11:57:48;;;;;;;11.63;2.10;;;15.80;99.90;;;;;;7390051;19;20090;-64
2022/05/21 12:00:50;;;;;;;10.00;1.67;;;15.80;99.90;;;;;;7392311;19;20011;-64
2022/05/21 12:03:25;;;;;;;7.65;1.60;;;16.10;99.90;;;;;;7392742;19;20453;-64
2022/05/21 12:06:34;;;;;;;6.07;1.90;;;16.10;99.90;;;;;;7392495;19;20046;-64
2022/05/21 12:09:13;;;;;;;7.47;2.13;;;15.90;99.90;;;;;;7392167;19;20029;-64
2022/05/21 12:11:47;;;;;;;8.95;2.35;;;15.70;99.90;;;;;;7395642;19;20018;-64
2022/05/21 12:14:25;;;;;;;9.52;2.20;;;15.50;99.90;;;;;;7393004;19;20484;-64
2022/05/21 12:17:04;;;;;;;5.85;2.22;;;15.80;99.90;;;;;;7390941;19;20018;-64
2022/05/21 12:20:06;;;;;;;4.85;2.05;;;15.90;99.90;;;;;;7393285;19;20022;-64
2022/05/21 12:22:54;;;;;;;7.03;1.80;;;15.80;99.90;;;;;;7393368;19;20015;-64
2022/05/21 12:26:02;;;;;;;5.68;1.70;;;16.10;99.90;;;;;;7391994;19;20017;-64
2022/05/21 12:28:48;;;;;;;5.15;1.23;;;16.10;99.90;;;;;;7389155;19;20469;-65
2022/05/21 12:31:24;;;;;;;5.90;1.65;;;16.10;99.90;;;;;;7390180;19;20082;-64
2022/05/21 12:34:11;;;;;;;4.50;1.50;;;16.10;99.90;;;;;;7391582;19;20090;-65
2022/05/21 12:36:52;;;;;;;6.38;1.85;;;16.50;99.90;;;;;;7397005;19;20006;-64
2022/05/21 12:39:28;;;;;;;7.00;1.75;;;16.60;99.90;;;;;;7398547;19;20034;-65
2022/05/21 12:41:59;;;;;;;;;;;16.80;99.90;;;;;;7402334;19;20022;-64
2022/05/21 12:44:47;;;;;;;8.85;2.08;;;16.50;99.90;;;;;;7398968;19;19974;-64
2022/05/21 12:47:27;;;;;;;9.02;3.03;;;16.50;99.90;;;;;;7398802;19;20358;-64
2022/05/21 12:49:58;;;;;;;11.40;2.65;;;16.30;99.90;;;;;;7398123;19;20077;-65
2022/05/21 12:52:43;;;;;;;6.75;2.10;;;16.60;99.90;;;;;;7398643;19;20342;-64
2022/05/21 12:55:19;;;;;;;9.23;1.97;;;16.30;99.90;;;;;;7401370;19;20026;-64
2022/05/21 12:57:50;;;;;;;7.25;1.70;;;16.10;99.90;;;;;;7401359;19;20279;-64
2022/05/21 13:00:23;;;;;;;5.35;2.05;;;16.10;99.90;;;;;;7398387;19;20074;-64
2022/05/21 13:02:58;;;;;;;9.32;2.42;;;15.80;99.90;;;;;;7399014;19;20022;-64
2022/05/21 13:05:30;;;;;;;5.68;2.10;;;15.90;99.90;;;;;;7398329;19;20343;-64
2022/05/21 13:08:03;;;;;;;8.40;2.22;;;15.90;99.90;;;;;;7398526;19;20507;-64
2022/05/21 13:10:35;;;;;;;10.55;2.50;;;15.70;99.90;;;;;;7396339;19;20022;-64
2022/05/21 13:13:09;;;;;;;10.98;2.75;;;15.80;99.90;;;;;;7398248;19;20011;-64
2022/05/21 13:15:45;;;;;;;9.85;2.70;;;16.00;99.90;;;;;;7398986;19;20018;-64
2022/05/21 13:18:25;;;;;;;14.10;2.83;;;16.50;99.90;;;;;;7393922;19;20074;-64
2022/05/21 13:21:03;;;;;;;13.98;2.75;;;16.60;99.90;;;;;;7398135;19;20073;-64
2022/05/21 13:23:59;;;;;;;8.10;2.60;;;16.80;99.90;;;;;;7398439;19;20018;-64
2022/05/21 13:26:31;;;;;;;9.38;2.80;;;16.90;99.90;;;;;;7397742;19;20031;-64
2022/05/21 13:29:17;;;;;;;7.18;2.50;;;16.80;99.90;;;;;;7400166;19;20450;-64
2022/05/21 13:31:50;;;;;;;9.48;2.60;;;16.60;99.90;;;;;;7395279;19;20026;-64
2022/05/21 13:34:20;;;;;;;7.90;2.80;;;16.50;99.90;;;;;;7399545;19;20047;-64
2022/05/21 13:36:53;;;;;;;8.55;2.05;;;16.40;99.90;;;;;;7396934;19;20500;-64
2022/05/21 13:39:27;;;;;;;10.27;2.45;;;16.80;99.90;;;;;;7396926;19;20037;-64
2022/05/21 13:41:57;;;;;;;7.22;2.42;;;16.70;99.90;;;;;;7396391;19;20046;-64
2022/05/21 13:44:26;;;;;;;6.60;2.55;;;16.60;99.90;;;;;;7398333;19;20026;-63
2022/05/21 13:47:01;;;;;;;7.72;2.40;;;16.90;99.90;;;;;;7395645;19;20351;-63